Terminal Aerodrome Forecast
Issued by NWS

Home | Current Version | Previous Version | Text Only | Print | Product List | Glossary On
Versions: 1 2 3 4 5 6 7 8 9 10 11 12 13 14 15 16 17 18 19 20 21 22 23 24 25
674
FTUS44 KLIX 120534
TAFHDC
TAF
KHDC 120534Z 1206/1306 23007KT P6SM SKC
     FM121000 VRB03KT 5SM BR SCT040
     FM121500 27008KT P6SM BKN015=

USA.gov is the U.S. government's official web portal to all federal, state and local government web resources and services.